Latest Coastal Weather Observations for South Channel Island

IDV60701

Issued at 7:51 am EDT Thursday 14 November 2019 (issued every 10 minutes, with the page automatically refreshed every 10 minutes)

About coastal observations | Map of coastal stations | Coastal observations for VIC | Marine services | Other Formats
Station Details ID: 086344 Name: SOUTH CHANNEL ISLAND Lat: -38.31 Lon: 144.80 Height: 9.0 m
Data from the previous 72 hours. | See also: Recent months at South Channel Island
Date/Time
EDT
Wind Sea
Height
m
Swell Vis
km
Cloud Weather Temp
°C
Press
hPa
Rain since
9am
mm
Dir  Spd
kts
Gust
kts
Height
m
Period
s
Dir
14/07:30am WNW 20 25 - - - - - - - - - -
14/07:00am WNW 19 23 - - - - - - - - - -
14/06:30am WNW 18 21 - - - - - - - - - -
14/06:00am WNW 20 25 - - - - - - - - - -
14/05:30am WNW 20 25 - - - - - - - - - -
14/05:00am WNW 21 24 - - - - - - - - - -
14/04:30am WNW 21 25 - - - - - - - - - -
14/04:00am W 17 22 - - - - - - - - - -
14/03:30am WNW 17 20 - - - - - - - - - -
14/03:00am WNW 18 20 - - - - - - - - - -
14/02:30am WNW 17 19 - - - - - - - - - -
14/02:00am WNW 17 20 - - - - - - - - - -
14/01:30am WNW 20 25 - - - - - - - - - -
14/01:00am WNW 18 21 - - - - - - - - - -
14/12:30am WNW 20 24 - - - - - - - - - -
14/12:00am WNW 19 23 - - - - - - - - - -
 
Date/Time
EDT
Wind Sea
Height
m
Swell Vis
km
Cloud Weather Temp
°C
Press
hPa
Rain since
9am
mm
Dir  Spd
kts
Gust
kts
Height
m
Period
s
Dir
13/11:30pm WNW 20 23 - - - - - - - - - -
13/11:00pm W 20 24 - - - - - - - - - -
13/10:30pm W 20 23 - - - - - - - - - -
13/10:00pm W 22 25 - - - - - - - - - -
13/09:30pm W 22 27 - - - - - - - - - -
13/09:00pm W 18 20 - - - - - - - - - -
13/08:30pm WSW 12 14 - - - - - - - - - -
13/08:00pm WSW 12 14 - - - - - - - - - -
13/07:30pm WSW 16 18 - - - - - - - - - -
13/07:00pm WSW 15 18 - - - - - - - - - -
13/06:30pm WSW 17 20 - - - - - - - - - -
13/06:00pm W 17 20 - - - - - - - - - -
13/05:30pm WSW 20 23 - - - - - - - - - -
13/05:00pm W 21 25 - - - - - - - - - -
13/04:30pm W 21 25 - - - - - - - - - -
13/04:00pm W 25 31 - - - - - - - - - -
13/03:30pm W 26 30 - - - - - - - - - -
13/03:00pm W 26 31 - - - - - - - - - -
13/02:30pm W 25 28 - - - - - - - - - -
13/02:00pm W 26 30 - - - - - - - - - -
13/01:30pm W 26 29 - - - - - - - - - -
13/01:00pm W 21 27 - - - - - - - - - -
13/12:30pm W 25 30 - - - - - - - - - -
13/12:00pm W 20 24 - - - - - - - - - -
13/11:30am W 19 22 - - - - - - - - - -
13/11:00am W 19 22 - - - - - - - - - -
13/10:30am W 21 25 - - - - - - - - - -
13/10:00am W 23 27 - - - - - - - - - -
13/09:30am W 24 28 - - - - - - - - - -
13/09:00am WNW 19 23 - - - - - - - - - -
13/08:30am WNW 20 23 - - - - - - - - - -
13/08:00am WNW 22 26 - - - - - - - - - -
13/07:30am WNW 23 28 - - - - - - - - - -
13/07:00am WNW 23 28 - - - - - - - - - -
13/06:30am WNW 24 28 - - - - - - - - - -
13/06:00am WNW 23 27 - - - - - - - - - -
13/05:30am WNW 23 27 - - - - - - - - - -
13/05:00am WNW 23 27 - - - - - - - - - -
13/04:30am WNW 22 28 - - - - - - - - - -
13/04:00am WNW 22 27 - - - - - - - - - -
13/03:30am WNW 22 27 - - - - - - - - - -
13/03:00am W 23 28 - - - - - - - - - -
13/02:30am WNW 22 26 - - - - - - - - - -
13/02:00am WNW 23 26 - - - - - - - - - -
13/01:30am WNW 24 28 - - - - - - - - - -
13/01:00am W 21 26 - - - - - - - - - -
13/12:30am W 25 29 - - - - - - - - - -
13/12:00am W 24 28 - - - - - - - - - -
 
Date/Time
EDT
Wind Sea
Height
m
Swell Vis
km
Cloud Weather Temp
°C
Press
hPa
Rain since
9am
mm
Dir  Spd
kts
Gust
kts
Height
m
Period
s
Dir
12/11:36pm WSW 19 29 - - - - - - - - - -
12/11:30pm W 23 29 - - - - - - - - - -
12/11:00pm W 22 27 - - - - - - - - - -
12/10:30pm WNW 22 28 - - - - - - - - - -
12/10:00pm W 23 29 - - - - - - - - - -
12/09:52pm WSW 24 28 - - - - - - - - - -
12/09:30pm WSW 28 34 - - - - - - - - - -
12/09:00pm WSW 27 34 - - - - - - - - - -
12/08:35pm WSW 26 38 - - - - - - - - - -
12/08:30pm WSW 25 29 - - - - - - - - - -
12/08:00pm WSW 29 37 - - - - - - - - - -
12/07:33pm WSW 24 34 - - - - - - - - - -
12/07:30pm WSW 22 28 - - - - - - - - - -
12/07:00pm WSW 23 28 - - - - - - - - - -
12/06:30pm WSW 26 32 - - - - - - - - - -
12/06:00pm SW 26 34 - - - - - - - - - -
12/05:49pm WSW 24 29 - - - - - - - - - -
12/05:30pm W 25 30 - - - - - - - - - -
12/05:00pm WSW 22 28 - - - - - - - - - -
12/04:32pm WSW 28 38 - - - - - - - - - -
12/04:30pm WSW 29 38 - - - - - - - - - -
12/04:00pm WSW 25 32 - - - - - - - - - -
12/03:30pm WSW 22 32 - - - - - - - - - -
12/03:20pm SW 22 34 - - - - - - - - - -
12/03:00pm SW 18 24 - - - - - - - - - -
12/02:30pm SW 21 27 - - - - - - - - - -
12/02:00pm WSW 18 22 - - - - - - - - - -
12/01:30pm WSW 20 30 - - - - - - - - - -
12/01:21pm WSW 21 30 - - - - - - - - - -
12/01:00pm SW 15 20 - - - - - - - - - -
12/12:30pm WSW 16 19 - - - - - - - - - -
12/12:00pm SW 18 21 - - - - - - - - - -
12/11:30am WSW 19 26 - - - - - - - - - -
12/11:00am WSW 21 26 - - - - - - - - - -
12/10:30am WSW 21 25 - - - - - - - - - -
12/10:00am SW 20 24 - - - - - - - - - -
12/09:30am WSW 19 24 - - - - - - - - - -
12/09:00am WSW 20 23 - - - - - - - - - -
12/08:34am SW 21 38 - - - - - - - - - -
12/08:30am SW 20 24 - - - - - - - - - -
12/08:00am WSW 18 21 - - - - - - - - - -
12/07:33am WSW 21 31 - - - - - - - - - -
12/07:30am WSW 20 23 - - - - - - - - - -
12/07:00am SW 19 23 - - - - - - - - - -
12/06:30am SW 27 33 - - - - - - - - - -
12/06:00am SW 28 39 - - - - - - - - - -
12/05:59am SW 27 39 - - - - - - - - - -
12/05:30am SW 25 31 - - - - - - - - - -
12/05:00am SW 25 30 - - - - - - - - - -
12/04:30am SW 28 36 - - - - - - - - - -
12/04:00am SW 31 40 - - - - - - - - - -
12/03:52am SW 29 40 - - - - - - - - - -
12/03:30am SW 29 37 - - - - - - - - - -
12/03:00am SW 26 30 - - - - - - - - - -
12/02:30am SW 24 28 - - - - - - - - - -
12/02:00am WSW 14 21 - - - - - - - - - -
12/01:30am SSE 11 25 - - - - - - - - - -
12/01:27am ESE 9 25 - - - - - - - - - -
12/01:00am ESE 8 8 - - - - - - - - - -
12/12:30am SSW 8 10 - - - - - - - - - -
12/12:00am SSW 14 23 - - - - - - - - - -
 
Date/Time
EDT
Wind Sea
Height
m
Swell Vis
km
Cloud Weather Temp
°C
Press
hPa
Rain since
9am
mm
Dir  Spd
kts
Gust
kts
Height
m
Period
s
Dir
11/11:47pm WSW 22 39 - - - - - - - - - -
11/11:43pm WSW 21 40 - - - - - - - - - -
11/11:36pm W 18 40 - - - - - - - - - -
11/11:30pm NNW 19 26 - - - - - - - - - -
11/11:29pm NNW 19 26 - - - - - - - - - -
11/11:00pm N 21 24 - - - - - - - - - -
11/10:30pm N 25 28 - - - - - - - - - -
11/10:00pm N 26 29 - - - - - - - - - -
11/09:30pm N 26 28 - - - - - - - - - -
11/09:00pm N 23 25 - - - - - - - - - -
11/08:30pm NNE 20 23 - - - - - - - - - -
11/08:00pm N 17 17 - - - - - - - - - -
11/07:30pm NNE 15 16 - - - - - - - - - -
11/07:00pm N 11 14 - - - - - - - - - -
11/06:30pm N 11 13 - - - - - - - - - -
11/06:00pm NNW 9 11 - - - - - - - - - -
11/05:30pm NNW 12 14 - - - - - - - - - -
11/05:00pm NNW 14 16 - - - - - - - - - -
11/04:30pm NNW 13 15 - - - - - - - - - -
11/04:00pm N 14 16 - - - - - - - - - -
11/03:30pm N 11 16 - - - - - - - - - -
11/03:00pm N 9 11 - - - - - - - - - -
11/02:30pm N 9 12 - - - - - - - - - -
11/02:00pm N 13 15 - - - - - - - - - -
11/01:30pm N 15 16 - - - - - - - - - -
11/01:00pm N 15 17 - - - - - - - - - -
11/12:30pm N 20 23 - - - - - - - - - -
11/12:00pm N 17 20 - - - - - - - - - -
11/11:30am N 13 15 - - - - - - - - - -
11/11:00am NNE 11 13 - - - - - - - - - -
11/10:30am N 9 11 - - - - - - - - - -
11/10:00am N 13 15 - - - - - - - - - -
11/09:30am N 13 15 - - - - - - - - - -
11/09:00am N 16 18 - - - - - - - - - -
11/08:30am N 16 18 - - - - - - - - - -
11/08:00am N 17 19 - - - - - - - - - -

Other formats

Comma delimited format used in spreadsheet applications
http://www.bom.gov.au/fwo/IDV60701/IDV60701.94853.axf

JavaScript Object Notation format (JSON) in row-major order
http://www.bom.gov.au/fwo/IDV60701/IDV60701.94853.json

Data quality

Most of these data are generated automatically and are frequently updated. Quality checks on data are not normally performed. It is possible for incorrect values to appear. Refer to information at About Latest Weather Observations and please check the disclaimer before using these data.